Slocum, Texas
Current Conditions -  °F | °C
As of 6:15 AM on Thursday 23 Oct 2014 (Local Time) from KPSN Reporting Station
Clear Clear  
Wind Chill: 60°   Ceiling: Unl
Heat Index: 60°   Visibility: 10mi
Dew Point: 54°   Wind: 3mph
Humidity: 79%   Direction: 70°ENE
Pressure: 30.14"   Gusts: NA
Location:  31.6239°N, 95.528°W
Report Text: KPSN 231115Z AUTO 07003KT 10SM CLR 16/12 A3014 RMK AO2 T01580122
Loading
Personal Weather Stations






























Interactive Weather Map
Tropical Storm Tracking
New forecast layout! Learn more

10-Day Weather Forecast

Advertisements
Track Severe Weather on mobile